sensor_id;sensor_type;location;lat;lon;timestamp;pressure;altitude;pressure_sealevel;temperature;humidity
63447;BME280;49577;49.872;6.190;2022-08-19T00:01:46;99251.31;;;16.39;72.25
63447;BME280;49577;49.872;6.190;2022-08-19T00:04:15;99254.40;;;16.35;72.36
63447;BME280;49577;49.872;6.190;2022-08-19T00:06:42;99256.90;;;16.31;72.71
63447;BME280;49577;49.872;6.190;2022-08-19T00:09:11;99258.70;;;16.32;72.76
63447;BME280;49577;49.872;6.190;2022-08-19T00:11:37;99257.05;;;16.33;72.81
63447;BME280;49577;49.872;6.190;2022-08-19T00:14:04;99260.45;;;16.34;72.79
63447;BME280;49577;49.872;6.190;2022-08-19T00:16:31;99260.73;;;16.31;72.68
63447;BME280;49577;49.872;6.190;2022-08-19T00:18:56;99258.98;;;16.23;72.76
63447;BME280;49577;49.872;6.190;2022-08-19T00:21:23;99262.48;;;16.16;72.90
63447;BME280;49577;49.872;6.190;2022-08-19T00:23:49;99264.94;;;16.08;73.08
63447;BME280;49577;49.872;6.190;2022-08-19T00:26:15;99271.73;;;16.01;73.33
63447;BME280;49577;49.872;6.190;2022-08-19T00:28:40;99270.34;;;15.98;73.57
63447;BME280;49577;49.872;6.190;2022-08-19T00:31:07;99272.23;;;15.94;73.72
63447;BME280;49577;49.872;6.190;2022-08-19T00:33:33;99270.80;;;15.90;73.74
63447;BME280;49577;49.872;6.190;2022-08-19T00:36:01;99266.64;;;15.87;73.85
63447;BME280;49577;49.872;6.190;2022-08-19T00:38:27;99260.13;;;15.82;73.99
63447;BME280;49577;49.872;6.190;2022-08-19T00:40:53;99257.54;;;15.77;74.04
63447;BME280;49577;49.872;6.190;2022-08-19T00:43:21;99260.56;;;15.73;74.32
63447;BME280;49577;49.872;6.190;2022-08-19T00:45:47;99254.91;;;15.71;74.43
63447;BME280;49577;49.872;6.190;2022-08-19T00:48:13;99256.66;;;15.69;74.61
63447;BME280;49577;49.872;6.190;2022-08-19T00:50:40;99254.39;;;15.67;74.65
63447;BME280;49577;49.872;6.190;2022-08-19T00:53:10;99251.81;;;15.64;74.58
63447;BME280;49577;49.872;6.190;2022-08-19T00:55:37;99253.39;;;15.60;74.68
63447;BME280;49577;49.872;6.190;2022-08-19T00:58:08;99255.21;;;15.56;74.89
63447;BME280;49577;49.872;6.190;2022-08-19T01:00:35;99248.95;;;15.53;75.07
63447;BME280;49577;49.872;6.190;2022-08-19T01:03:08;99248.27;;;15.51;75.08
63447;BME280;49577;49.872;6.190;2022-08-19T01:05:36;99238.80;;;15.48;75.25
63447;BME280;49577;49.872;6.190;2022-08-19T01:08:03;99238.39;;;15.45;75.28
63447;BME280;49577;49.872;6.190;2022-08-19T01:10:35;99236.67;;;15.44;75.52
63447;BME280;49577;49.872;6.190;2022-08-19T01:13:02;99236.77;;;15.47;75.70
63447;BME280;49577;49.872;6.190;2022-08-19T01:15:32;99230.54;;;15.50;75.67
63447;BME280;49577;49.872;6.190;2022-08-19T01:18:01;99229.64;;;15.52;75.49
63447;BME280;49577;49.872;6.190;2022-08-19T01:20:29;99229.29;;;15.56;75.41
63447;BME280;49577;49.872;6.190;2022-08-19T01:22:57;99232.34;;;15.55;75.18
63447;BME280;49577;49.872;6.190;2022-08-19T01:25:29;99235.23;;;15.49;75.17
63447;BME280;49577;49.872;6.190;2022-08-19T01:27:56;99234.06;;;15.40;75.16
63447;BME280;49577;49.872;6.190;2022-08-19T01:30:27;99238.53;;;15.35;75.51
63447;BME280;49577;49.872;6.190;2022-08-19T01:32:54;99236.74;;;15.31;75.63
63447;BME280;49577;49.872;6.190;2022-08-19T01:35:21;99234.92;;;15.28;75.61
63447;BME280;49577;49.872;6.190;2022-08-19T01:37:55;99236.02;;;15.26;75.85
63447;BME280;49577;49.872;6.190;2022-08-19T01:40:25;99239.23;;;15.25;75.88
63447;BME280;49577;49.872;6.190;2022-08-19T01:42:52;99233.84;;;15.23;76.08
63447;BME280;49577;49.872;6.190;2022-08-19T01:45:19;99233.98;;;15.23;76.06
63447;BME280;49577;49.872;6.190;2022-08-19T01:47:45;99234.42;;;15.24;75.96
63447;BME280;49577;49.872;6.190;2022-08-19T01:50:12;99229.11;;;15.19;75.92
63447;BME280;49577;49.872;6.190;2022-08-19T01:52:39;99230.88;;;15.14;76.00
63447;BME280;49577;49.872;6.190;2022-08-19T01:55:08;99231.59;;;15.12;76.05
63447;BME280;49577;49.872;6.190;2022-08-19T01:57:34;99236.76;;;15.09;76.22
63447;BME280;49577;49.872;6.190;2022-08-19T02:00:00;99239.61;;;15.05;76.28
63447;BME280;49577;49.872;6.190;2022-08-19T02:02:27;99243.92;;;15.02;76.68
63447;BME280;49577;49.872;6.190;2022-08-19T02:04:53;99248.97;;;15.05;76.85
63447;BME280;49577;49.872;6.190;2022-08-19T02:07:19;99249.86;;;15.08;76.66
63447;BME280;49577;49.872;6.190;2022-08-19T02:09:46;99252.02;;;15.08;76.53
63447;BME280;49577;49.872;6.190;2022-08-19T02:12:13;99248.77;;;15.05;76.45
63447;BME280;49577;49.872;6.190;2022-08-19T02:14:39;99245.05;;;15.03;76.68
63447;BME280;49577;49.872;6.190;2022-08-19T02:17:05;99237.17;;;15.05;76.63
63447;BME280;49577;49.872;6.190;2022-08-19T02:19:30;99239.86;;;15.04;76.73
63447;BME280;49577;49.872;6.190;2022-08-19T02:21:58;99238.80;;;15.04;76.61
63447;BME280;49577;49.872;6.190;2022-08-19T02:24:23;99239.64;;;15.07;76.72
63447;BME280;49577;49.872;6.190;2022-08-19T02:26:49;99239.21;;;15.09;76.73
63447;BME280;49577;49.872;6.190;2022-08-19T02:29:14;99241.01;;;15.09;76.74
63447;BME280;49577;49.872;6.190;2022-08-19T02:31:39;99241.92;;;15.07;76.93
63447;BME280;49577;49.872;6.190;2022-08-19T02:34:05;99244.85;;;15.03;76.98
63447;BME280;49577;49.872;6.190;2022-08-19T02:36:30;99248.10;;;15.01;76.95
63447;BME280;49577;49.872;6.190;2022-08-19T02:38:55;99254.13;;;15.00;77.07
63447;BME280;49577;49.872;6.190;2022-08-19T02:41:27;99254.45;;;15.00;77.00
63447;BME280;49577;49.872;6.190;2022-08-19T02:43:57;99252.55;;;14.98;76.84
63447;BME280;49577;49.872;6.190;2022-08-19T02:46:26;99251.48;;;14.90;76.89
63447;BME280;49577;49.872;6.190;2022-08-19T02:48:55;99250.43;;;14.83;76.95
63447;BME280;49577;49.872;6.190;2022-08-19T02:51:23;99246.39;;;14.79;77.23
63447;BME280;49577;49.872;6.190;2022-08-19T02:53:49;99246.80;;;14.79;77.16
63447;BME280;49577;49.872;6.190;2022-08-19T02:56:15;99249.42;;;14.79;77.34
63447;BME280;49577;49.872;6.190;2022-08-19T02:58:41;99255.66;;;14.78;77.51
63447;BME280;49577;49.872;6.190;2022-08-19T03:01:06;99247.26;;;14.80;77.64
63447;BME280;49577;49.872;6.190;2022-08-19T03:03:32;99247.48;;;14.79;77.56
63447;BME280;49577;49.872;6.190;2022-08-19T03:06:13;99255.41;;;14.77;77.42
63447;BME280;49577;49.872;6.190;2022-08-19T03:08:40;99260.80;;;14.73;77.58
63447;BME280;49577;49.872;6.190;2022-08-19T03:13:47;99260.69;;;14.68;77.57
63447;BME280;49577;49.872;6.190;2022-08-19T03:16:17;99259.08;;;14.65;77.71
63447;BME280;49577;49.872;6.190;2022-08-19T03:18:42;99265.25;;;14.62;77.85
63447;BME280;49577;49.872;6.190;2022-08-19T03:21:08;99263.81;;;14.63;78.03
63447;BME280;49577;49.872;6.190;2022-08-19T03:23:34;99268.36;;;14.61;77.72
63447;BME280;49577;49.872;6.190;2022-08-19T03:26:04;99260.52;;;14.58;77.86
63447;BME280;49577;49.872;6.190;2022-08-19T03:28:30;99266.22;;;14.55;77.93
63447;BME280;49577;49.872;6.190;2022-08-19T03:31:02;99266.17;;;14.54;78.08
63447;BME280;49577;49.872;6.190;2022-08-19T03:33:28;99262.40;;;14.53;78.24
63447;BME280;49577;49.872;6.190;2022-08-19T03:38:36;99259.29;;;14.54;78.62
63447;BME280;49577;49.872;6.190;2022-08-19T03:41:03;99264.61;;;14.56;78.66
63447;BME280;49577;49.872;6.190;2022-08-19T03:43:32;99269.98;;;14.57;78.65
63447;BME280;49577;49.872;6.190;2022-08-19T03:46:06;99270.15;;;14.59;78.60
63447;BME280;49577;49.872;6.190;2022-08-19T03:48:33;99275.96;;;14.62;78.46
63447;BME280;49577;49.872;6.190;2022-08-19T03:50:59;99276.83;;;14.65;78.49
63447;BME280;49577;49.872;6.190;2022-08-19T03:53:27;99276.20;;;14.64;78.39
63447;BME280;49577;49.872;6.190;2022-08-19T03:55:53;99273.02;;;14.62;78.35
63447;BME280;49577;49.872;6.190;2022-08-19T03:58:19;99276.98;;;14.59;78.34
63447;BME280;49577;49.872;6.190;2022-08-19T04:00:44;99279.11;;;14.54;78.23
63447;BME280;49577;49.872;6.190;2022-08-19T04:03:10;99280.33;;;14.50;78.42
63447;BME280;49577;49.872;6.190;2022-08-19T04:05:35;99284.48;;;14.51;78.45
63447;BME280;49577;49.872;6.190;2022-08-19T04:08:01;99282.98;;;14.48;78.18
63447;BME280;49577;49.872;6.190;2022-08-19T04:10:27;99283.55;;;14.41;78.13
63447;BME280;49577;49.872;6.190;2022-08-19T04:12:53;99283.39;;;14.36;78.44
63447;BME280;49577;49.872;6.190;2022-08-19T04:15:18;99283.19;;;14.36;78.64
63447;BME280;49577;49.872;6.190;2022-08-19T04:17:44;99285.36;;;14.38;78.59
63447;BME280;49577;49.872;6.190;2022-08-19T04:20:10;99286.98;;;14.36;78.49
63447;BME280;49577;49.872;6.190;2022-08-19T04:22:35;99292.48;;;14.33;78.31
63447;BME280;49577;49.872;6.190;2022-08-19T04:25:01;99285.90;;;14.30;78.52
63447;BME280;49577;49.872;6.190;2022-08-19T04:27:26;99289.20;;;14.26;78.39
63447;BME280;49577;49.872;6.190;2022-08-19T04:29:51;99290.52;;;14.23;78.83
63447;BME280;49577;49.872;6.190;2022-08-19T04:32:19;99292.34;;;14.22;78.67
63447;BME280;49577;49.872;6.190;2022-08-19T04:34:44;99288.64;;;14.22;78.66
63447;BME280;49577;49.872;6.190;2022-08-19T04:37:09;99294.44;;;14.24;78.68
63447;BME280;49577;49.872;6.190;2022-08-19T04:39:37;99295.42;;;14.27;78.73
63447;BME280;49577;49.872;6.190;2022-08-19T04:42:20;99289.19;;;14.24;78.63
63447;BME280;49577;49.872;6.190;2022-08-19T04:45:12;99294.14;;;14.21;78.90
63447;BME280;49577;49.872;6.190;2022-08-19T04:47:39;99293.48;;;14.23;79.03
63447;BME280;49577;49.872;6.190;2022-08-19T04:50:05;99295.71;;;14.23;79.17
63447;BME280;49577;49.872;6.190;2022-08-19T04:52:31;99295.95;;;14.27;79.29
63447;BME280;49577;49.872;6.190;2022-08-19T04:54:57;99297.39;;;14.33;79.25
63447;BME280;49577;49.872;6.190;2022-08-19T04:57:23;99302.74;;;14.38;79.21
63447;BME280;49577;49.872;6.190;2022-08-19T04:59:48;99303.17;;;14.44;79.03
63447;BME280;49577;49.872;6.190;2022-08-19T05:02:14;99308.37;;;14.45;78.91
63447;BME280;49577;49.872;6.190;2022-08-19T05:04:39;99314.42;;;14.44;78.72
63447;BME280;49577;49.872;6.190;2022-08-19T05:07:07;99318.46;;;14.44;78.77
63447;BME280;49577;49.872;6.190;2022-08-19T05:09:32;99324.32;;;14.45;78.84
63447;BME280;49577;49.872;6.190;2022-08-19T05:11:58;99330.73;;;14.47;78.84
63447;BME280;49577;49.872;6.190;2022-08-19T05:14:25;99330.55;;;14.49;78.74
63447;BME280;49577;49.872;6.190;2022-08-19T05:16:50;99326.54;;;14.51;78.83
63447;BME280;49577;49.872;6.190;2022-08-19T05:19:16;99326.58;;;14.54;78.93
63447;BME280;49577;49.872;6.190;2022-08-19T05:22:00;99322.84;;;14.61;79.02
63447;BME280;49577;49.872;6.190;2022-08-19T05:24:44;99313.45;;;14.68;78.93
63447;BME280;49577;49.872;6.190;2022-08-19T05:27:09;99309.91;;;14.72;78.82
63447;BME280;49577;49.872;6.190;2022-08-19T05:29:35;99307.13;;;14.78;78.74
63447;BME280;49577;49.872;6.190;2022-08-19T05:32:03;99315.80;;;14.86;78.68
63447;BME280;49577;49.872;6.190;2022-08-19T05:34:30;99331.24;;;14.97;78.75
63447;BME280;49577;49.872;6.190;2022-08-19T05:36:58;99334.42;;;15.05;78.46
63447;BME280;49577;49.872;6.190;2022-08-19T05:39:27;99338.98;;;15.11;78.20
63447;BME280;49577;49.872;6.190;2022-08-19T05:41:59;99341.14;;;15.19;78.30
63447;BME280;49577;49.872;6.190;2022-08-19T05:44:27;99340.81;;;15.29;78.05
63447;BME280;49577;49.872;6.190;2022-08-19T05:46:56;99338.20;;;15.36;78.12
63447;BME280;49577;49.872;6.190;2022-08-19T05:49:23;99332.70;;;15.45;77.68
63447;BME280;49577;49.872;6.190;2022-08-19T05:51:49;99334.84;;;15.53;77.78
63447;BME280;49577;49.872;6.190;2022-08-19T05:54:15;99338.40;;;15.60;77.58
63447;BME280;49577;49.872;6.190;2022-08-19T05:56:42;99338.06;;;15.69;77.46
63447;BME280;49577;49.872;6.190;2022-08-19T05:59:09;99334.70;;;15.81;77.27
63447;BME280;49577;49.872;6.190;2022-08-19T06:01:41;99331.86;;;15.97;76.84
63447;BME280;49577;49.872;6.190;2022-08-19T06:04:07;99333.47;;;16.18;76.61
63447;BME280;49577;49.872;6.190;2022-08-19T06:06:33;99331.55;;;16.47;76.14
63447;BME280;49577;49.872;6.190;2022-08-19T06:09:04;99335.92;;;16.88;75.31
63447;BME280;49577;49.872;6.190;2022-08-19T06:11:45;99335.89;;;17.52;74.39
63447;BME280;49577;49.872;6.190;2022-08-19T06:14:14;99333.55;;;18.25;72.70
63447;BME280;49577;49.872;6.190;2022-08-19T06:16:41;99331.01;;;18.94;71.20
63447;BME280;49577;49.872;6.190;2022-08-19T06:19:11;99331.63;;;19.55;69.46
63447;BME280;49577;49.872;6.190;2022-08-19T06:21:38;99335.22;;;20.07;67.94
63447;BME280;49577;49.872;6.190;2022-08-19T06:24:06;99334.96;;;20.62;66.90
63447;BME280;49577;49.872;6.190;2022-08-19T06:26:34;99337.27;;;21.19;65.43
63447;BME280;49577;49.872;6.190;2022-08-19T06:29:00;99332.94;;;21.77;63.60
63447;BME280;49577;49.872;6.190;2022-08-19T06:31:29;99326.99;;;22.31;62.00
63447;BME280;49577;49.872;6.190;2022-08-19T06:33:56;99324.03;;;23.03;60.33
63447;BME280;49577;49.872;6.190;2022-08-19T06:36:25;99321.38;;;23.61;57.90
63447;BME280;49577;49.872;6.190;2022-08-19T06:38:57;99324.92;;;24.29;57.08
63447;BME280;49577;49.872;6.190;2022-08-19T06:41:23;99329.52;;;25.11;55.07
63447;BME280;49577;49.872;6.190;2022-08-19T06:43:49;99329.58;;;25.84;53.31
63447;BME280;49577;49.872;6.190;2022-08-19T06:46:16;99331.91;;;26.56;51.65
63447;BME280;49577;49.872;6.190;2022-08-19T06:48:42;99330.88;;;27.17;50.17
63447;BME280;49577;49.872;6.190;2022-08-19T06:51:08;99333.92;;;27.80;48.56
63447;BME280;49577;49.872;6.190;2022-08-19T06:53:33;99337.58;;;28.34;47.43
63447;BME280;49577;49.872;6.190;2022-08-19T06:55:59;99336.80;;;28.96;46.03
63447;BME280;49577;49.872;6.190;2022-08-19T06:58:31;99332.53;;;29.30;44.64
63447;BME280;49577;49.872;6.190;2022-08-19T07:01:01;99332.21;;;29.27;43.76
63447;BME280;49577;49.872;6.190;2022-08-19T07:03:29;99340.42;;;29.10;43.56
63447;BME280;49577;49.872;6.190;2022-08-19T07:05:56;99344.65;;;28.89;43.53
63447;BME280;49577;49.872;6.190;2022-08-19T07:08:21;99350.02;;;28.78;43.39
63447;BME280;49577;49.872;6.190;2022-08-19T07:10:47;99359.38;;;28.61;43.06
63447;BME280;49577;49.872;6.190;2022-08-19T07:13:14;99358.40;;;28.69;42.95
63447;BME280;49577;49.872;6.190;2022-08-19T07:15:39;99363.92;;;28.87;42.53
63447;BME280;49577;49.872;6.190;2022-08-19T07:18:04;99363.34;;;28.81;42.40
63447;BME280;49577;49.872;6.190;2022-08-19T07:20:30;99365.92;;;28.68;42.71
63447;BME280;49577;49.872;6.190;2022-08-19T07:22:55;99365.41;;;28.29;42.68
63447;BME280;49577;49.872;6.190;2022-08-19T07:25:20;99365.50;;;28.03;43.19
63447;BME280;49577;49.872;6.190;2022-08-19T07:27:49;99368.89;;;28.22;43.16
63447;BME280;49577;49.872;6.190;2022-08-19T07:30:15;99373.77;;;28.49;42.66
63447;BME280;49577;49.872;6.190;2022-08-19T07:32:40;99374.56;;;28.74;42.22
63447;BME280;49577;49.872;6.190;2022-08-19T07:35:07;99377.06;;;29.26;41.62
63447;BME280;49577;49.872;6.190;2022-08-19T07:37:34;99374.09;;;29.76;40.66
63447;BME280;49577;49.872;6.190;2022-08-19T07:40:04;99377.45;;;30.09;39.94
63447;BME280;49577;49.872;6.190;2022-08-19T07:42:29;99372.20;;;30.44;39.37
63447;BME280;49577;49.872;6.190;2022-08-19T07:44:55;99375.81;;;30.96;38.95
63447;BME280;49577;49.872;6.190;2022-08-19T07:47:20;99367.06;;;31.58;37.89
63447;BME280;49577;49.872;6.190;2022-08-19T07:49:45;99360.75;;;32.01;37.00
63447;BME280;49577;49.872;6.190;2022-08-19T07:52:12;99361.74;;;32.46;36.16
63447;BME280;49577;49.872;6.190;2022-08-19T07:54:39;99360.21;;;32.91;35.39
63447;BME280;49577;49.872;6.190;2022-08-19T07:57:06;99366.55;;;33.25;34.61
63447;BME280;49577;49.872;6.190;2022-08-19T07:59:32;99375.65;;;33.53;33.75
63447;BME280;49577;49.872;6.190;2022-08-19T08:01:58;99376.05;;;33.48;33.51
63447;BME280;49577;49.872;6.190;2022-08-19T08:04:28;99377.41;;;33.33;33.40
63447;BME280;49577;49.872;6.190;2022-08-19T08:07:12;99375.77;;;33.36;33.19
63447;BME280;49577;49.872;6.190;2022-08-19T08:09:55;99373.20;;;33.53;32.99
63447;BME280;49577;49.872;6.190;2022-08-19T08:12:33;99373.13;;;33.95;32.78
63447;BME280;49577;49.872;6.190;2022-08-19T08:15:02;99374.27;;;34.52;32.04
63447;BME280;49577;49.872;6.190;2022-08-19T08:17:30;99373.48;;;34.99;31.38
63447;BME280;49577;49.872;6.190;2022-08-19T08:19:57;99368.67;;;35.37;30.87
63447;BME280;49577;49.872;6.190;2022-08-19T08:22:24;99369.30;;;35.78;30.15
63447;BME280;49577;49.872;6.190;2022-08-19T08:25:14;99371.56;;;36.17;29.56
63447;BME280;49577;49.872;6.190;2022-08-19T08:27:41;99365.43;;;36.32;28.65
63447;BME280;49577;49.872;6.190;2022-08-19T08:30:16;99366.63;;;36.05;28.81
63447;BME280;49577;49.872;6.190;2022-08-19T08:32:42;99362.38;;;36.08;28.88
63447;BME280;49577;49.872;6.190;2022-08-19T08:35:12;99366.77;;;36.54;28.60
63447;BME280;49577;49.872;6.190;2022-08-19T08:37:38;99369.67;;;36.86;28.10
63447;BME280;49577;49.872;6.190;2022-08-19T08:42:52;99369.85;;;37.23;27.18
63447;BME280;49577;49.872;6.190;2022-08-19T08:45:20;99370.05;;;37.49;26.98
63447;BME280;49577;49.872;6.190;2022-08-19T08:47:49;99367.98;;;37.92;26.62
63447;BME280;49577;49.872;6.190;2022-08-19T08:50:25;99366.69;;;38.45;26.09
63447;BME280;49577;49.872;6.190;2022-08-19T08:52:56;99362.64;;;38.59;25.47
63447;BME280;49577;49.872;6.190;2022-08-19T08:55:23;99359.33;;;38.56;25.48
63447;BME280;49577;49.872;6.190;2022-08-19T09:00:20;99353.52;;;38.88;25.18
63447;BME280;49577;49.872;6.190;2022-08-19T09:02:46;99347.70;;;38.85;24.57
63447;BME280;49577;49.872;6.190;2022-08-19T09:05:12;99339.22;;;38.35;24.51
63447;BME280;49577;49.872;6.190;2022-08-19T09:10:38;99345.26;;;38.00;25.60
63447;BME280;49577;49.872;6.190;2022-08-19T09:15:48;99345.91;;;37.23;25.92
63447;BME280;49577;49.872;6.190;2022-08-19T09:18:14;99345.79;;;36.41;26.63
63447;BME280;49577;49.872;6.190;2022-08-19T09:20:41;99345.09;;;36.05;27.03
63447;BME280;49577;49.872;6.190;2022-08-19T09:23:07;99347.93;;;35.75;27.35
63447;BME280;49577;49.872;6.190;2022-08-19T09:25:33;99344.27;;;36.05;27.39
63447;BME280;49577;49.872;6.190;2022-08-19T09:28:00;99343.38;;;36.15;26.95
63447;BME280;49577;49.872;6.190;2022-08-19T09:30:34;99347.91;;;35.70;27.31
63447;BME280;49577;49.872;6.190;2022-08-19T09:33:00;99345.91;;;36.11;27.23
63447;BME280;49577;49.872;6.190;2022-08-19T09:35:27;99346.05;;;36.19;27.03
63447;BME280;49577;49.872;6.190;2022-08-19T09:37:54;99346.05;;;35.96;27.25
63447;BME280;49577;49.872;6.190;2022-08-19T09:40:20;99350.15;;;36.27;26.97
63447;BME280;49577;49.872;6.190;2022-08-19T09:42:45;99343.27;;;36.53;26.93
63447;BME280;49577;49.872;6.190;2022-08-19T09:45:16;99343.95;;;36.09;27.35
63447;BME280;49577;49.872;6.190;2022-08-19T09:47:42;99346.41;;;35.22;28.10
63447;BME280;49577;49.872;6.190;2022-08-19T09:50:10;99346.92;;;34.37;28.86
63447;BME280;49577;49.872;6.190;2022-08-19T09:52:36;99344.35;;;34.59;29.11
63447;BME280;49577;49.872;6.190;2022-08-19T09:55:06;99345.13;;;35.28;28.69
63447;BME280;49577;49.872;6.190;2022-08-19T09:57:32;99344.52;;;35.80;28.07
63447;BME280;49577;49.872;6.190;2022-08-19T09:59:58;99346.45;;;35.88;28.06
63447;BME280;49577;49.872;6.190;2022-08-19T10:02:24;99345.86;;;35.65;27.86
63447;BME280;49577;49.872;6.190;2022-08-19T10:04:50;99341.67;;;35.94;27.22
63447;BME280;49577;49.872;6.190;2022-08-19T10:07:34;99348.62;;;36.35;27.21
63447;BME280;49577;49.872;6.190;2022-08-19T10:09:59;99352.42;;;36.27;27.20
63447;BME280;49577;49.872;6.190;2022-08-19T10:12:24;99351.23;;;36.63;26.61
63447;BME280;49577;49.872;6.190;2022-08-19T10:14:50;99344.23;;;36.84;26.32
63447;BME280;49577;49.872;6.190;2022-08-19T10:17:18;99343.52;;;37.19;26.17
63447;BME280;49577;49.872;6.190;2022-08-19T10:19:43;99340.35;;;37.61;25.44
63447;BME280;49577;49.872;6.190;2022-08-19T10:22:09;99335.37;;;37.71;25.15
63447;BME280;49577;49.872;6.190;2022-08-19T10:24:39;99332.61;;;37.69;24.88
63447;BME280;49577;49.872;6.190;2022-08-19T10:27:05;99333.11;;;37.55;24.88
63447;BME280;49577;49.872;6.190;2022-08-19T10:29:32;99327.80;;;37.42;25.03
63447;BME280;49577;49.872;6.190;2022-08-19T10:32:00;99325.13;;;37.39;25.06
63447;BME280;49577;49.872;6.190;2022-08-19T10:34:27;99323.17;;;36.75;25.73
63447;BME280;49577;49.872;6.190;2022-08-19T10:36:54;99319.77;;;36.29;26.21
63447;BME280;49577;49.872;6.190;2022-08-19T10:39:19;99321.55;;;35.72;26.93
63447;BME280;49577;49.872;6.190;2022-08-19T10:41:45;99321.08;;;35.64;26.95
63447;BME280;49577;49.872;6.190;2022-08-19T10:44:12;99325.54;;;35.19;27.43
63447;BME280;49577;49.872;6.190;2022-08-19T10:46:41;99325.56;;;34.96;27.58
63447;BME280;49577;49.872;6.190;2022-08-19T10:49:08;99322.90;;;34.61;27.79
63447;BME280;49577;49.872;6.190;2022-08-19T10:51:34;99322.44;;;34.81;28.07
63447;BME280;49577;49.872;6.190;2022-08-19T10:54:19;99316.89;;;34.51;28.47
63447;BME280;49577;49.872;6.190;2022-08-19T10:56:45;99313.34;;;34.20;29.06
63447;BME280;49577;49.872;6.190;2022-08-19T10:59:22;99314.64;;;34.15;28.57
63447;BME280;49577;49.872;6.190;2022-08-19T11:01:49;99311.95;;;34.08;28.53
63447;BME280;49577;49.872;6.190;2022-08-19T11:04:15;99316.40;;;34.46;27.99
63447;BME280;49577;49.872;6.190;2022-08-19T11:06:45;99312.77;;;34.69;27.59
63447;BME280;49577;49.872;6.190;2022-08-19T11:09:14;99310.17;;;35.00;27.22
63447;BME280;49577;49.872;6.190;2022-08-19T11:11:41;99301.27;;;34.88;27.78
63447;BME280;49577;49.872;6.190;2022-08-19T11:14:11;99301.00;;;34.97;27.81
63447;BME280;49577;49.872;6.190;2022-08-19T11:16:40;99301.52;;;34.49;27.75
63447;BME280;49577;49.872;6.190;2022-08-19T11:19:08;99298.52;;;33.92;28.35
63447;BME280;49577;49.872;6.190;2022-08-19T11:21:39;99300.84;;;33.60;28.40
63447;BME280;49577;49.872;6.190;2022-08-19T11:24:08;99295.11;;;33.98;28.40
63447;BME280;49577;49.872;6.190;2022-08-19T11:26:34;99297.46;;;34.52;27.86
63447;BME280;49577;49.872;6.190;2022-08-19T11:29:00;99296.55;;;34.74;27.28
63447;BME280;49577;49.872;6.190;2022-08-19T11:31:29;99302.64;;;35.05;26.80
63447;BME280;49577;49.872;6.190;2022-08-19T11:34:01;99297.21;;;35.28;26.27
63447;BME280;49577;49.872;6.190;2022-08-19T11:36:28;99305.83;;;34.92;26.15
63447;BME280;49577;49.872;6.190;2022-08-19T11:38:54;99302.06;;;34.92;25.51
63447;BME280;49577;49.872;6.190;2022-08-19T11:41:22;99303.33;;;35.21;24.65
63447;BME280;49577;49.872;6.190;2022-08-19T11:43:51;99305.83;;;35.52;24.64
63447;BME280;49577;49.872;6.190;2022-08-19T11:46:19;99304.39;;;36.00;24.47
63447;BME280;49577;49.872;6.190;2022-08-19T11:48:45;99302.36;;;36.30;24.11
63447;BME280;49577;49.872;6.190;2022-08-19T11:51:14;99293.06;;;36.41;23.80
63447;BME280;49577;49.872;6.190;2022-08-19T11:53:40;99293.63;;;36.24;23.80
63447;BME280;49577;49.872;6.190;2022-08-19T11:56:07;99295.20;;;36.07;24.03
63447;BME280;49577;49.872;6.190;2022-08-19T11:58:33;99290.09;;;35.72;24.01
63447;BME280;49577;49.872;6.190;2022-08-19T12:00:59;99286.27;;;35.17;24.53
63447;BME280;49577;49.872;6.190;2022-08-19T12:03:25;99289.60;;;34.63;25.43
63447;BME280;49577;49.872;6.190;2022-08-19T12:05:50;99288.08;;;33.97;26.04
63447;BME280;49577;49.872;6.190;2022-08-19T12:08:16;99290.02;;;33.30;26.75
63447;BME280;49577;49.872;6.190;2022-08-19T12:10:42;99289.00;;;32.99;27.23
63447;BME280;49577;49.872;6.190;2022-08-19T12:13:08;99293.29;;;32.60;27.96
63447;BME280;49577;49.872;6.190;2022-08-19T12:15:39;99293.80;;;32.18;28.70
63447;BME280;49577;49.872;6.190;2022-08-19T12:18:08;99292.22;;;31.82;29.20
63447;BME280;49577;49.872;6.190;2022-08-19T12:20:36;99293.58;;;31.64;29.76
63447;BME280;49577;49.872;6.190;2022-08-19T12:23:03;99288.03;;;31.71;29.96
63447;BME280;49577;49.872;6.190;2022-08-19T12:25:28;99285.79;;;31.94;29.69
63447;BME280;49577;49.872;6.190;2022-08-19T12:27:54;99285.28;;;31.99;29.51
63447;BME280;49577;49.872;6.190;2022-08-19T12:30:20;99285.64;;;31.68;29.65
63447;BME280;49577;49.872;6.190;2022-08-19T12:32:45;99286.42;;;31.44;30.05
63447;BME280;49577;49.872;6.190;2022-08-19T12:35:10;99285.97;;;31.23;30.41
63447;BME280;49577;49.872;6.190;2022-08-19T12:37:36;99289.47;;;31.02;31.00
63447;BME280;49577;49.872;6.190;2022-08-19T12:40:03;99284.71;;;30.95;31.00
63447;BME280;49577;49.872;6.190;2022-08-19T12:42:29;99281.11;;;30.73;31.47
63447;BME280;49577;49.872;6.190;2022-08-19T12:44:55;99281.30;;;30.45;32.19
63447;BME280;49577;49.872;6.190;2022-08-19T12:47:20;99282.30;;;30.18;32.48
63447;BME280;49577;49.872;6.190;2022-08-19T12:49:46;99287.63;;;30.00;32.83
63447;BME280;49577;49.872;6.190;2022-08-19T12:52:12;99286.56;;;29.98;33.11
63447;BME280;49577;49.872;6.190;2022-08-19T12:54:42;99279.41;;;30.28;32.88
63447;BME280;49577;49.872;6.190;2022-08-19T12:57:09;99280.67;;;30.55;32.62
63447;BME280;49577;49.872;6.190;2022-08-19T12:59:36;99280.50;;;30.80;32.52
63447;BME280;49577;49.872;6.190;2022-08-19T13:02:05;99280.58;;;31.06;32.31
63447;BME280;49577;49.872;6.190;2022-08-19T13:04:31;99276.96;;;31.20;31.64
63447;BME280;49577;49.872;6.190;2022-08-19T13:06:58;99275.00;;;31.31;31.71
63447;BME280;49577;49.872;6.190;2022-08-19T13:09:23;99274.55;;;31.21;31.74
63447;BME280;49577;49.872;6.190;2022-08-19T13:11:49;99278.17;;;30.96;31.88
63447;BME280;49577;49.872;6.190;2022-08-19T13:14:14;99280.65;;;30.76;32.25
63447;BME280;49577;49.872;6.190;2022-08-19T13:16:39;99278.65;;;30.61;32.46
63447;BME280;49577;49.872;6.190;2022-08-19T13:19:06;99278.66;;;30.46;32.28